createdAt,value
2016-08-31T00:00:33.845Z,46.63
2016-08-31T00:01:08.152Z,46.51
2016-08-31T00:01:42.481Z,46.61
2016-08-31T00:02:16.764Z,46.32
2016-08-31T00:02:51.063Z,46.61
2016-08-31T00:03:25.342Z,46.61
2016-08-31T00:03:59.689Z,46.42
2016-08-31T00:04:34.027Z,46.53
2016-08-31T00:05:08.319Z,46.22
2016-08-31T00:05:42.603Z,46.51
2016-08-31T00:06:16.901Z,46.22
2016-08-31T00:06:51.180Z,46.32
2016-08-31T00:07:25.466Z,46.32
2016-08-31T00:07:59.763Z,46.22
2016-08-31T00:08:34.066Z,46.12
2016-08-31T00:09:08.384Z,46.51
2016-08-31T00:09:42.661Z,46.12
2016-08-31T00:10:16.949Z,46.51
2016-08-31T00:10:51.235Z,46.03
2016-08-31T00:11:25.516Z,46.7
2016-08-31T00:11:59.805Z,46.42
2016-08-31T00:12:34.097Z,46.7
2016-08-31T00:13:08.403Z,46.22
2016-08-31T00:13:42.696Z,46.32
2016-08-31T00:14:16.977Z,46.22
2016-08-31T00:14:51.269Z,46.32
2016-08-31T00:15:25.560Z,46.22
2016-08-31T00:15:59.856Z,46.22
2016-08-31T00:16:34.169Z,46.7
2016-08-31T00:17:08.463Z,46.7
2016-08-31T00:17:42.757Z,46.12
2016-08-31T00:18:17.063Z,46.7
2016-08-31T00:18:51.382Z,46.7
2016-08-31T00:19:25.667Z,46.42
2016-08-31T00:19:59.953Z,46.22
2016-08-31T00:20:34.557Z,46.42
2016-08-31T00:21:08.843Z,46.42
2016-08-31T00:21:43.128Z,46.51
2016-08-31T00:22:17.412Z,46.42
2016-08-31T00:22:51.696Z,46.42
2016-08-31T00:23:25.975Z,46.61
2016-08-31T00:24:00.282Z,46.61
2016-08-31T00:24:34.576Z,46.32
2016-08-31T00:25:08.876Z,46.22
2016-08-31T00:25:43.161Z,46.12
2016-08-31T00:26:17.454Z,46.03
2016-08-31T00:26:51.752Z,46.9
2016-08-31T00:27:26.048Z,46.32
2016-08-31T00:28:00.339Z,46.32
2016-08-31T00:28:34.639Z,46.7
2016-08-31T00:29:08.921Z,46.22
2016-08-31T00:29:43.220Z,46.32
2016-08-31T00:30:17.737Z,46.32
2016-08-31T00:30:52.019Z,46.42
2016-08-31T00:31:26.284Z,46.61
2016-08-31T00:32:00.572Z,46.32
2016-08-31T00:32:34.854Z,46
2016-08-31T00:33:09.212Z,46
2016-08-31T00:33:43.503Z,46.12
2016-08-31T00:34:17.783Z,46.61
2016-08-31T00:34:52.074Z,46.12
2016-08-31T00:35:26.386Z,46.12
2016-08-31T00:36:00.667Z,46.7
2016-08-31T00:36:34.953Z,46.22
2016-08-31T00:37:09.230Z,46.1
2016-08-31T00:37:43.510Z,46.61
2016-08-31T00:38:17.796Z,46.61
2016-08-31T00:38:52.078Z,46.22
2016-08-31T00:39:26.363Z,46.2
2016-08-31T00:40:00.656Z,46.49
2016-08-31T00:40:34.935Z,46.03
2016-08-31T00:41:09.217Z,46.51
2016-08-31T00:41:43.522Z,46.9
2016-08-31T00:42:17.796Z,46.39
2016-08-31T00:42:52.071Z,46.22
2016-08-31T00:43:26.356Z,46.39
2016-08-31T00:44:00.645Z,46.32
2016-08-31T00:44:34.929Z,46.49
2016-08-31T00:45:09.199Z,46
2016-08-31T00:45:43.877Z,46.39
2016-08-31T00:46:18.169Z,46.2
2016-08-31T00:46:52.491Z,46.39
2016-08-31T00:47:26.773Z,46.12
2016-08-31T00:48:01.079Z,46.3
2016-08-31T00:48:35.367Z,46.3
2016-08-31T00:49:09.662Z,46.39
2016-08-31T00:49:43.949Z,46.42
2016-08-31T00:50:18.243Z,46.1
2016-08-31T00:50:52.770Z,46.49
2016-08-31T00:51:27.045Z,46.58
2016-08-31T00:52:01.415Z,46
2016-08-31T00:52:35.721Z,46.2
2016-08-31T00:53:10.003Z,46.49
2016-08-31T00:53:44.279Z,46.39
2016-08-31T00:54:18.572Z,46.39
2016-08-31T00:54:52.860Z,46.39
2016-08-31T00:55:27.138Z,46.3
2016-08-31T00:56:01.429Z,46.2
2016-08-31T00:56:35.732Z,46.3
2016-08-31T00:57:10.017Z,46.49
2016-08-31T00:57:44.311Z,46.58
2016-08-31T00:58:18.601Z,46.58
2016-08-31T00:58:52.884Z,46.49
2016-08-31T00:59:27.163Z,46.39
2016-08-31T01:00:01.482Z,46.58
2016-08-31T01:00:35.772Z,46.49
2016-08-31T01:01:10.077Z,46.39
2016-08-31T01:01:44.392Z,46.3
2016-08-31T01:02:18.672Z,46.58
2016-08-31T01:02:52.949Z,46.58
2016-08-31T01:03:27.249Z,46.3
2016-08-31T01:04:01.549Z,46.58
2016-08-31T01:04:35.839Z,46.58
2016-08-31T01:05:10.141Z,46.39
2016-08-31T01:05:44.430Z,46.49
2016-08-31T01:06:18.748Z,46.49
2016-08-31T01:06:53.029Z,46.39
2016-08-31T01:07:27.367Z,46.49
2016-08-31T01:08:01.670Z,46.58
2016-08-31T01:08:35.950Z,46.49
2016-08-31T01:09:10.253Z,46.58
2016-08-31T01:09:44.560Z,46.49
2016-08-31T01:10:18.861Z,46.58
2016-08-31T01:10:53.158Z,46.58
2016-08-31T01:11:27.442Z,46.78
2016-08-31T01:12:01.749Z,46.39
2016-08-31T01:12:36.039Z,46.39
2016-08-31T01:13:10.335Z,46.3
2016-08-31T01:13:44.634Z,46.3
2016-08-31T01:14:18.953Z,46.3
2016-08-31T01:14:53.231Z,46.49
2016-08-31T01:15:27.524Z,46.49
2016-08-31T01:16:01.843Z,46.39
2016-08-31T01:16:36.135Z,46.39
2016-08-31T01:17:10.415Z,46.3
2016-08-31T01:17:44.710Z,46.39
2016-08-31T01:18:18.995Z,46.58
2016-08-31T01:18:53.266Z,46.3
2016-08-31T01:19:27.545Z,46.58
2016-08-31T01:20:01.829Z,46.58
2016-08-31T01:20:36.418Z,46.39
2016-08-31T01:21:10.704Z,46.39
2016-08-31T01:21:44.993Z,46.58
2016-08-31T01:22:19.299Z,46.49
2016-08-31T01:22:53.597Z,46.49
2016-08-31T01:23:27.880Z,46.58
2016-08-31T01:24:02.175Z,46.58
2016-08-31T01:24:36.471Z,46.58
2016-08-31T01:25:10.763Z,46.49
2016-08-31T01:25:45.051Z,46.58
2016-08-31T01:26:19.344Z,46.58
2016-08-31T01:26:53.629Z,46.47
2016-08-31T01:27:27.950Z,46.68
2016-08-31T01:28:02.228Z,46.78
2016-08-31T01:28:36.521Z,46.68
2016-08-31T01:29:10.810Z,46.47
2016-08-31T01:29:45.098Z,46.56
2016-08-31T01:30:19.395Z,46.78
2016-08-31T01:30:53.681Z,46.66
2016-08-31T01:31:27.968Z,46.75
2016-08-31T01:32:02.276Z,46.78
2016-08-31T01:32:36.562Z,46.88
2016-08-31T01:33:10.856Z,46.58
2016-08-31T01:33:45.164Z,46.66
2016-08-31T01:34:19.475Z,46.88
2016-08-31T01:34:53.765Z,46.27
2016-08-31T01:35:28.060Z,46.49
2016-08-31T01:36:02.346Z,46.88
2016-08-31T01:36:36.635Z,46.95
2016-08-31T01:37:10.913Z,46.56
2016-08-31T01:37:45.198Z,46.47
2016-08-31T01:38:19.477Z,47.05
2016-08-31T01:38:53.767Z,46.66
2016-08-31T01:39:28.048Z,46.56
2016-08-31T01:40:02.346Z,46.85
2016-08-31T01:40:37.164Z,46.47
2016-08-31T01:41:11.463Z,46.85
2016-08-31T01:41:45.755Z,46.66
2016-08-31T01:42:20.046Z,46.47
2016-08-31T01:42:54.312Z,46.85
2016-08-31T01:43:28.591Z,46.66
2016-08-31T01:44:02.877Z,46.66
2016-08-31T01:44:37.162Z,46.27
2016-08-31T01:45:11.456Z,46.56
2016-08-31T01:45:45.730Z,46.66
2016-08-31T01:46:20.001Z,46.37
2016-08-31T01:46:54.279Z,46.95
2016-08-31T01:47:28.562Z,46.95
2016-08-31T01:48:02.846Z,46.95
2016-08-31T01:48:37.142Z,46.95
2016-08-31T01:49:11.433Z,46.66
2016-08-31T01:49:45.730Z,46.95
2016-08-31T01:50:20.024Z,46.95
2016-08-31T01:50:54.303Z,46.85
2016-08-31T01:51:28.595Z,47.05
2016-08-31T01:52:02.874Z,46.85
2016-08-31T01:52:37.170Z,46.95
2016-08-31T01:53:11.482Z,46.75
2016-08-31T01:53:45.774Z,46.75
2016-08-31T01:54:20.082Z,46.95
2016-08-31T01:54:54.357Z,47.05
2016-08-31T01:55:28.645Z,46.85
2016-08-31T01:56:02.933Z,46.75
2016-08-31T01:56:37.227Z,46.75
2016-08-31T01:57:11.509Z,46.56
2016-08-31T01:57:45.796Z,46.85
2016-08-31T01:58:20.077Z,46.75
2016-08-31T01:58:54.370Z,46.85
2016-08-31T01:59:28.658Z,46.85
2016-08-31T02:00:02.938Z,46.95
2016-08-31T02:00:37.213Z,46.66
2016-08-31T02:01:11.496Z,46.85
2016-08-31T02:01:45.783Z,46.75
2016-08-31T02:02:20.066Z,46.85
2016-08-31T02:02:54.364Z,46.75
2016-08-31T02:03:28.669Z,46.75
2016-08-31T02:04:02.966Z,46.75
2016-08-31T02:04:37.243Z,46.95
2016-08-31T02:05:11.513Z,46.95
2016-08-31T02:05:45.867Z,46.85
2016-08-31T02:06:20.161Z,46.75
2016-08-31T02:06:54.439Z,46.95
2016-08-31T02:07:28.729Z,46.66
2016-08-31T02:08:03.058Z,46.95
2016-08-31T02:08:37.351Z,46.85
2016-08-31T02:09:11.635Z,46.66
2016-08-31T02:09:45.922Z,46.75
2016-08-31T02:10:20.213Z,46.66
2016-08-31T02:10:54.496Z,46.66
2016-08-31T02:11:28.777Z,46.95
2016-08-31T02:12:03.064Z,46.85
2016-08-31T02:12:37.351Z,46.95
2016-08-31T02:13:11.647Z,46.95
2016-08-31T02:13:45.932Z,46.85
2016-08-31T02:14:20.222Z,46.66
2016-08-31T02:14:54.502Z,46.85
2016-08-31T02:15:28.804Z,46.85
2016-08-31T02:16:03.097Z,46.95
2016-08-31T02:16:37.379Z,46.66
2016-08-31T02:17:11.670Z,46.85
2016-08-31T02:17:45.950Z,46.75
2016-08-31T02:18:20.234Z,46.95
2016-08-31T02:18:54.523Z,46.66
2016-08-31T02:19:28.817Z,46.73
2016-08-31T02:20:03.117Z,46.85
2016-08-31T02:20:37.685Z,46.95
2016-08-31T02:21:11.962Z,46.85
2016-08-31T02:21:46.264Z,46.75
2016-08-31T02:22:20.569Z,46.73
2016-08-31T02:22:54.858Z,46.66
2016-08-31T02:23:29.131Z,46.66
2016-08-31T02:24:03.421Z,46.83
2016-08-31T02:24:37.707Z,46.73
2016-08-31T02:25:11.995Z,46.64
2016-08-31T02:25:46.315Z,46.64
2016-08-31T02:26:20.624Z,46.73
2016-08-31T02:26:54.932Z,46.54
2016-08-31T02:27:29.227Z,46.73
2016-08-31T02:28:03.516Z,46.73
2016-08-31T02:28:37.813Z,46.75
2016-08-31T02:29:12.107Z,46.64
2016-08-31T02:29:46.402Z,46.56
2016-08-31T02:30:20.705Z,46.73
2016-08-31T02:30:54.982Z,46.64
2016-08-31T02:31:29.274Z,46.54
2016-08-31T02:32:03.559Z,46.73
2016-08-31T02:32:37.841Z,46.83
2016-08-31T02:33:12.116Z,46.64
2016-08-31T02:33:46.406Z,46.73
2016-08-31T02:34:20.686Z,46.73
2016-08-31T02:34:54.981Z,46.64
2016-08-31T02:35:29.283Z,46.92
2016-08-31T02:36:03.577Z,46.64
2016-08-31T02:36:37.854Z,46.83
2016-08-31T02:37:12.129Z,46.64
2016-08-31T02:37:46.421Z,47.02
2016-08-31T02:38:20.716Z,47.02
2016-08-31T02:38:55.011Z,46.73
2016-08-31T02:39:29.313Z,46.64
2016-08-31T02:40:03.590Z,46.73
2016-08-31T02:40:37.875Z,46.73
2016-08-31T02:41:12.158Z,46.73
2016-08-31T02:41:46.471Z,46.64
2016-08-31T02:42:20.770Z,46.73
2016-08-31T02:42:55.069Z,46.73
2016-08-31T02:43:29.360Z,47.02
2016-08-31T02:44:03.656Z,46.64
2016-08-31T02:44:37.940Z,46.73
2016-08-31T02:45:12.217Z,46.92
2016-08-31T02:45:46.488Z,47.02
2016-08-31T02:46:20.776Z,46.73
2016-08-31T02:46:55.071Z,46.83
2016-08-31T02:47:29.358Z,46.73
2016-08-31T02:48:03.642Z,47.02
2016-08-31T02:48:37.904Z,46.83
2016-08-31T02:49:12.182Z,46.73
2016-08-31T02:49:46.662Z,46.73
2016-08-31T02:50:20.970Z,46.83
2016-08-31T02:50:55.513Z,46.73
2016-08-31T02:51:29.803Z,47.02
2016-08-31T02:52:04.086Z,46.92
2016-08-31T02:52:38.380Z,46.83
2016-08-31T02:53:12.662Z,46.92
2016-08-31T02:53:46.967Z,46.73
2016-08-31T02:54:21.238Z,46.73
2016-08-31T02:54:55.506Z,46.64
2016-08-31T02:55:29.817Z,46.92
2016-08-31T02:56:04.115Z,46.83
2016-08-31T02:56:38.406Z,46.92
2016-08-31T02:57:12.696Z,46.83
2016-08-31T02:57:46.978Z,46.83
2016-08-31T02:58:21.256Z,46.73
2016-08-31T02:58:55.550Z,46.73
2016-08-31T02:59:29.824Z,46.92
2016-08-31T03:00:04.131Z,46.83
2016-08-31T03:00:38.470Z,46.64
2016-08-31T03:01:12.778Z,46.64
2016-08-31T03:01:47.064Z,46.73
2016-08-31T03:02:21.345Z,46.73
2016-08-31T03:02:55.629Z,46.92
2016-08-31T03:03:29.920Z,46.73
2016-08-31T03:04:04.210Z,47.02
2016-08-31T03:04:38.502Z,46.73
2016-08-31T03:05:12.792Z,46.73
2016-08-31T03:05:47.066Z,46.73
2016-08-31T03:06:21.354Z,46.73
2016-08-31T03:06:55.640Z,46.64
2016-08-31T03:07:29.950Z,46.73
2016-08-31T03:08:04.237Z,46.83
2016-08-31T03:08:38.537Z,46.73
2016-08-31T03:09:12.821Z,46.83
2016-08-31T03:09:47.104Z,46.64
2016-08-31T03:10:21.393Z,46.92
2016-08-31T03:10:55.689Z,46.54
2016-08-31T03:11:29.983Z,46.64
2016-08-31T03:12:04.273Z,46.83
2016-08-31T03:12:38.565Z,46.92
2016-08-31T03:13:12.850Z,47.31
2016-08-31T03:13:47.134Z,47.22
2016-08-31T03:14:21.436Z,47.02
2016-08-31T03:14:55.731Z,46.54
2016-08-31T03:15:30.015Z,47.02
2016-08-31T03:16:04.305Z,47.02
2016-08-31T03:16:38.589Z,46.71
2016-08-31T03:17:12.900Z,46.54
2016-08-31T03:17:47.198Z,46.61
2016-08-31T03:18:21.481Z,47.31
2016-08-31T03:18:55.757Z,46.73
2016-08-31T03:19:30.038Z,46.9
2016-08-31T03:20:04.863Z,47.29
2016-08-31T03:20:39.159Z,47.19
2016-08-31T03:21:13.450Z,47.29
2016-08-31T03:21:47.730Z,46.73
2016-08-31T03:22:22.012Z,47.22
2016-08-31T03:22:56.308Z,47.09
2016-08-31T03:23:30.622Z,46.71
2016-08-31T03:24:04.908Z,47.19
2016-08-31T03:24:39.236Z,46.73
2016-08-31T03:25:13.794Z,47.19
2016-08-31T03:25:48.128Z,46.9
2016-08-31T03:26:22.413Z,47.09
2016-08-31T03:26:56.695Z,47.12
2016-08-31T03:27:30.982Z,47.09
2016-08-31T03:28:05.268Z,47.29
2016-08-31T03:28:39.573Z,46.81
2016-08-31T03:29:13.850Z,47.09
2016-08-31T03:29:48.140Z,47.09
2016-08-31T03:30:22.437Z,47.09
2016-08-31T03:30:56.734Z,47.22
2016-08-31T03:31:31.022Z,46.71
2016-08-31T03:32:05.299Z,46.81
2016-08-31T03:32:39.626Z,47.09
2016-08-31T03:33:13.957Z,47.19
2016-08-31T03:33:48.235Z,47.19
2016-08-31T03:34:22.529Z,47.19
2016-08-31T03:34:56.803Z,46.81
2016-08-31T03:35:31.085Z,47
2016-08-31T03:36:05.398Z,47.19
2016-08-31T03:36:39.678Z,47.19
2016-08-31T03:37:13.964Z,47.09
2016-08-31T03:37:48.268Z,46.81
2016-08-31T03:38:22.544Z,47.19
2016-08-31T03:38:56.847Z,47.09
2016-08-31T03:39:31.131Z,46.81
2016-08-31T03:40:05.394Z,46.71
2016-08-31T03:40:40.133Z,47.19
2016-08-31T03:41:14.423Z,47.09
2016-08-31T03:41:48.707Z,47.09
2016-08-31T03:42:22.998Z,47
2016-08-31T03:42:57.315Z,46.9
2016-08-31T03:43:31.609Z,46.81
2016-08-31T03:44:05.908Z,47
2016-08-31T03:44:40.202Z,47.19
2016-08-31T03:45:14.476Z,47
2016-08-31T03:45:48.771Z,47
2016-08-31T03:46:23.054Z,47.09
2016-08-31T03:46:57.343Z,47
2016-08-31T03:47:31.638Z,47
2016-08-31T03:48:05.936Z,47.09
2016-08-31T03:48:40.215Z,47.09
2016-08-31T03:49:14.537Z,47.19
2016-08-31T03:49:48.828Z,47.09
2016-08-31T03:50:23.116Z,47
2016-08-31T03:50:57.411Z,47
2016-08-31T03:51:31.716Z,46.9
2016-08-31T03:52:05.999Z,47
2016-08-31T03:52:40.294Z,47.19
2016-08-31T03:53:14.596Z,47.09
2016-08-31T03:53:48.883Z,47
2016-08-31T03:54:23.180Z,47
2016-08-31T03:54:57.487Z,47
2016-08-31T03:55:31.779Z,47
2016-08-31T03:56:06.063Z,47
2016-08-31T03:56:40.353Z,47
2016-08-31T03:57:14.639Z,47.09
2016-08-31T03:57:48.912Z,47.19
2016-08-31T03:58:23.187Z,47
2016-08-31T03:58:57.497Z,46.9
2016-08-31T03:59:31.786Z,47.09
2016-08-31T04:00:06.063Z,47.09
2016-08-31T04:00:40.358Z,47.09
2016-08-31T04:01:14.652Z,46.9
2016-08-31T04:01:48.951Z,47.19
2016-08-31T04:02:23.253Z,47
2016-08-31T04:02:57.538Z,47
2016-08-31T04:03:31.848Z,47.09
2016-08-31T04:04:06.118Z,47.09
2016-08-31T04:04:40.410Z,47.09
2016-08-31T04:05:14.692Z,47.09
2016-08-31T04:05:49.003Z,47.19
2016-08-31T04:06:23.283Z,47.19
2016-08-31T04:06:57.575Z,47.09
2016-08-31T04:07:31.871Z,47.09
2016-08-31T04:08:06.171Z,47.09
2016-08-31T04:08:40.466Z,47.09
2016-08-31T04:09:14.741Z,47.19
2016-08-31T04:09:49.040Z,47.09
2016-08-31T04:10:23.325Z,47.09
2016-08-31T04:10:57.604Z,47.19
2016-08-31T04:11:31.898Z,47
2016-08-31T04:12:06.200Z,47.19
2016-08-31T04:12:40.483Z,47.09
2016-08-31T04:13:14.767Z,47.09
2016-08-31T04:13:49.060Z,47.19
2016-08-31T04:14:23.334Z,47.19
2016-08-31T04:14:57.660Z,47.09
2016-08-31T04:15:31.948Z,47.19
2016-08-31T04:16:06.244Z,47.19
2016-08-31T04:16:40.549Z,47.19
2016-08-31T04:17:14.829Z,47
2016-08-31T04:17:49.111Z,47.09
2016-08-31T04:18:23.405Z,47.19
2016-08-31T04:18:57.720Z,47.09
2016-08-31T04:19:32.026Z,47.29
2016-08-31T04:20:06.308Z,47.19
2016-08-31T04:20:41.060Z,47.09
2016-08-31T04:21:15.349Z,47.19
2016-08-31T04:21:49.632Z,47.19
2016-08-31T04:22:23.932Z,47.19
2016-08-31T04:22:58.209Z,47.19
2016-08-31T04:23:32.502Z,47.19
2016-08-31T04:24:06.781Z,47.19
2016-08-31T04:24:41.054Z,47.19
2016-08-31T04:25:15.322Z,47.19
2016-08-31T04:25:49.696Z,46.9
2016-08-31T04:26:23.990Z,47.09
2016-08-31T04:26:58.268Z,47.19
2016-08-31T04:27:32.532Z,47.09
2016-08-31T04:28:06.817Z,47.19
2016-08-31T04:28:41.124Z,47.09
2016-08-31T04:29:15.419Z,47.09
2016-08-31T04:29:49.714Z,47.19
2016-08-31T04:30:23.994Z,47.09
2016-08-31T04:30:58.276Z,47.09
2016-08-31T04:31:32.575Z,47.19
2016-08-31T04:32:06.877Z,47.19
2016-08-31T04:32:41.150Z,47.19
2016-08-31T04:33:15.427Z,47.29
2016-08-31T04:33:49.709Z,47
2016-08-31T04:34:24.009Z,47.09
2016-08-31T04:34:58.321Z,47.17
2016-08-31T04:35:32.615Z,47
2016-08-31T04:36:06.907Z,47.19
2016-08-31T04:36:41.187Z,47.19
2016-08-31T04:37:15.464Z,47.09
2016-08-31T04:37:49.758Z,47
2016-08-31T04:38:24.053Z,47.09
2016-08-31T04:38:58.330Z,47.19
2016-08-31T04:39:32.627Z,47.07
2016-08-31T04:40:06.922Z,47.07
2016-08-31T04:40:41.211Z,47.09
2016-08-31T04:41:15.494Z,46.97
2016-08-31T04:41:49.781Z,46.9
2016-08-31T04:42:24.078Z,47.09
2016-08-31T04:42:58.361Z,47.17
2016-08-31T04:43:32.669Z,47
2016-08-31T04:44:06.961Z,46.97
2016-08-31T04:44:41.247Z,47.17
2016-08-31T04:45:15.530Z,47
2016-08-31T04:45:49.813Z,47.07
2016-08-31T04:46:24.100Z,47.07
2016-08-31T04:46:58.397Z,47
2016-08-31T04:47:32.694Z,46.97
2016-08-31T04:48:07.001Z,47
2016-08-31T04:48:41.288Z,47.07
2016-08-31T04:49:15.581Z,47.07
2016-08-31T04:49:49.867Z,46.97
2016-08-31T04:50:24.138Z,46.97
2016-08-31T04:50:58.427Z,46.9
2016-08-31T04:51:32.727Z,46.97
2016-08-31T04:52:07.003Z,46.97
2016-08-31T04:52:41.290Z,47.07
2016-08-31T04:53:15.567Z,47.07
2016-08-31T04:53:49.846Z,46.97
2016-08-31T04:54:24.168Z,46.97
2016-08-31T04:54:58.442Z,46.88
2016-08-31T04:55:32.726Z,46.88
2016-08-31T04:56:07.016Z,46.88
2016-08-31T04:56:41.319Z,47.07
2016-08-31T04:57:15.598Z,47.17
2016-08-31T04:57:49.862Z,46.97
2016-08-31T04:58:24.151Z,46.97
2016-08-31T04:58:58.435Z,47.17
2016-08-31T04:59:32.712Z,46.97
2016-08-31T05:00:07.231Z,47.07
2016-08-31T05:00:42.153Z,46.97
2016-08-31T05:01:16.478Z,47.07
2016-08-31T05:01:50.785Z,47.07
2016-08-31T05:02:25.083Z,46.88
2016-08-31T05:02:59.352Z,46.97
2016-08-31T05:03:33.623Z,47.07
2016-08-31T05:04:07.912Z,47.07
2016-08-31T05:04:42.197Z,46.97
2016-08-31T05:05:16.502Z,47.17
2016-08-31T05:05:50.792Z,46.97
2016-08-31T05:06:25.082Z,47.07
2016-08-31T05:06:59.375Z,47.17
2016-08-31T05:07:33.660Z,46.97
2016-08-31T05:08:07.955Z,47.07
2016-08-31T05:08:42.248Z,46.97
2016-08-31T05:09:16.544Z,47.07
2016-08-31T05:09:50.831Z,46.97
2016-08-31T05:10:25.116Z,47.07
2016-08-31T05:10:59.406Z,47.07
2016-08-31T05:11:33.690Z,46.88
2016-08-31T05:12:07.982Z,47.07
2016-08-31T05:12:42.284Z,47.07
2016-08-31T05:13:16.557Z,47.17
2016-08-31T05:13:50.839Z,46.97
2016-08-31T05:14:25.146Z,46.88
2016-08-31T05:14:59.458Z,46.97
2016-08-31T05:15:33.952Z,46.97
2016-08-31T05:16:08.229Z,47.07
2016-08-31T05:16:42.530Z,47.07
2016-08-31T05:17:16.810Z,46.97
2016-08-31T05:17:51.079Z,46.97
2016-08-31T05:18:25.368Z,46.97
2016-08-31T05:18:59.648Z,47.07
2016-08-31T05:19:33.937Z,46.88
2016-08-31T05:20:08.229Z,47.07
2016-08-31T05:20:42.528Z,46.97
2016-08-31T05:21:16.815Z,46.97
2016-08-31T05:21:52.633Z,46.97
2016-08-31T05:22:26.944Z,46.97
2016-08-31T05:23:01.244Z,46.97
2016-08-31T05:23:35.540Z,47.07
2016-08-31T05:24:09.833Z,46.97
2016-08-31T05:24:44.117Z,46.97
2016-08-31T05:25:18.385Z,46.78
2016-08-31T05:25:52.680Z,47.07
2016-08-31T05:26:26.963Z,46.88
2016-08-31T05:27:01.253Z,47.07
2016-08-31T05:27:35.538Z,47.07
2016-08-31T05:28:09.827Z,46.97
2016-08-31T05:28:44.120Z,46.97
2016-08-31T05:29:18.403Z,47.07
2016-08-31T05:34:39.291Z,49.39
2016-08-31T05:35:13.602Z,49.1
2016-08-31T05:35:48.845Z,49
2016-08-31T05:36:23.134Z,48.9
2016-08-31T05:36:57.465Z,49
2016-08-31T05:37:31.764Z,48.9
2016-08-31T05:38:06.050Z,49.02
2016-08-31T05:38:40.350Z,48.71
2016-08-31T05:39:14.640Z,48.64
2016-08-31T05:39:51.347Z,48.61
2016-08-31T05:40:25.768Z,48.81
2016-08-31T05:41:00.431Z,48.71
2016-08-31T05:41:35.101Z,48.71
2016-08-31T05:42:09.423Z,48.61
2016-08-31T05:42:43.732Z,48.54
2016-08-31T05:43:18.029Z,48.52
2016-08-31T05:43:53.683Z,48.64
2016-08-31T05:44:27.977Z,48.61
2016-08-31T05:45:02.277Z,48.61
2016-08-31T05:45:37.527Z,48.52
2016-08-31T05:46:11.812Z,48.61
2016-08-31T05:46:46.122Z,48.52
2016-08-31T05:47:20.738Z,48.42
2016-08-31T05:47:55.982Z,48.33
2016-08-31T05:48:31.249Z,48.33
2016-08-31T05:49:06.320Z,48.52
2016-08-31T05:49:41.822Z,48.23
2016-08-31T05:50:17.349Z,48.42
2016-08-31T05:50:52.421Z,48.52
2016-08-31T05:51:27.818Z,48.42
2016-08-31T05:52:03.228Z,48.33
2016-08-31T05:52:38.689Z,48.23
2016-08-31T05:53:14.055Z,48.42
2016-08-31T05:53:49.494Z,48.42
2016-08-31T05:54:24.962Z,48.42
2016-08-31T05:55:00.462Z,48.42
2016-08-31T05:55:35.613Z,48.42
2016-08-31T05:56:10.695Z,48.42
2016-08-31T05:56:45.617Z,48.33
2016-08-31T05:57:21.165Z,48.23
2016-08-31T05:57:56.260Z,48.33
2016-08-31T05:58:32.015Z,48.23
2016-08-31T05:59:06.709Z,48.33
2016-08-31T05:59:42.735Z,48.03
2016-08-31T06:00:19.288Z,48.23
2016-08-31T06:00:55.658Z,48.23
2016-08-31T06:01:30.273Z,48.16
2016-08-31T06:02:04.758Z,48.03
2016-08-31T06:02:39.056Z,48.13
2016-08-31T06:03:13.339Z,48.16
2016-08-31T06:03:47.624Z,48.35
2016-08-31T06:04:21.958Z,48.16
2016-08-31T06:04:57.597Z,48.06
2016-08-31T06:05:31.890Z,48.06
2016-08-31T06:06:06.262Z,48.06
2016-08-31T06:06:40.823Z,47.96
2016-08-31T06:07:15.133Z,47.96
2016-08-31T06:07:49.497Z,47.87
2016-08-31T06:08:23.801Z,47.96
2016-08-31T06:08:58.154Z,47.87
2016-08-31T06:09:33.604Z,47.96
2016-08-31T06:10:09.030Z,47.96
2016-08-31T06:10:44.483Z,47.87
2016-08-31T06:11:18.793Z,47.87
2016-08-31T06:11:53.092Z,47.87
2016-08-31T06:12:27.382Z,47.87
2016-08-31T06:13:01.669Z,47.77
2016-08-31T06:13:35.960Z,47.67
2016-08-31T06:14:11.221Z,47.77
2016-08-31T06:14:46.439Z,47.87
2016-08-31T06:15:22.005Z,47.87
2016-08-31T06:15:56.623Z,47.77
2016-08-31T06:16:30.977Z,47.67
2016-08-31T06:17:05.273Z,47.77
2016-08-31T06:17:40.362Z,47.58
2016-08-31T06:18:15.598Z,47.48
2016-08-31T06:18:49.869Z,47.38
2016-08-31T06:19:24.146Z,47.58
2016-08-31T06:19:59.255Z,47.67
2016-08-31T06:20:33.657Z,47.67
2016-08-31T06:21:07.940Z,47.7
2016-08-31T06:21:42.227Z,47.58
2016-08-31T06:22:16.612Z,47.5
2016-08-31T06:22:50.918Z,47.6
2016-08-31T06:23:25.268Z,47.41
2016-08-31T06:23:59.567Z,47.6
2016-08-31T06:24:33.876Z,47.41
2016-08-31T06:25:08.200Z,47.41
2016-08-31T06:25:43.287Z,47.6
2016-08-31T06:26:18.291Z,47.5
2016-08-31T06:26:52.587Z,47.41
2016-08-31T06:27:26.885Z,47.31
2016-08-31T06:28:01.158Z,47.31
2016-08-31T06:28:36.183Z,47.5
2016-08-31T06:29:11.010Z,47.41
2016-08-31T06:29:45.965Z,47.31
2016-08-31T06:30:20.536Z,47.24
2016-08-31T06:30:56.125Z,47.5
2016-08-31T06:31:30.846Z,47.41
2016-08-31T06:32:05.142Z,47.33
2016-08-31T06:32:39.428Z,47.33
2016-08-31T06:33:13.753Z,47.33
2016-08-31T06:33:48.214Z,47.24
2016-08-31T06:34:23.776Z,47.05
2016-08-31T06:34:58.784Z,47.14
2016-08-31T06:35:33.332Z,47.43
2016-08-31T06:36:09.161Z,46.95
2016-08-31T06:36:43.572Z,47.24
2016-08-31T06:37:19.113Z,47.05
2016-08-31T06:37:55.852Z,47.33
2016-08-31T06:38:33.301Z,47.43
2016-08-31T06:39:10.472Z,47.43
2016-08-31T06:39:45.409Z,47.24
2016-08-31T06:40:23.277Z,47.24
2016-08-31T06:40:58.443Z,47.24
2016-08-31T06:41:34.301Z,47.05
2016-08-31T06:42:09.964Z,47.16
2016-08-31T06:42:46.437Z,47.14
2016-08-31T06:43:22.202Z,47.24
2016-08-31T06:43:57.747Z,47.16
2016-08-31T06:44:32.049Z,47.26
2016-08-31T06:45:08.782Z,46.78
2016-08-31T06:45:43.350Z,47.16
2016-08-31T06:46:18.167Z,47.16
2016-08-31T06:46:53.309Z,47.16
2016-08-31T06:47:27.837Z,47.16
2016-08-31T06:48:02.306Z,47.36
2016-08-31T06:48:37.338Z,47.36
2016-08-31T06:49:11.633Z,46.78
2016-08-31T06:49:46.030Z,46.68
2016-08-31T06:50:20.422Z,46.97
2016-08-31T06:50:54.823Z,46.97
2016-08-31T06:51:29.187Z,46.9
2016-08-31T06:52:03.500Z,46.97
2016-08-31T06:52:38.610Z,46.97
2016-08-31T06:53:12.912Z,46.68
2016-08-31T06:53:47.204Z,46.7
2016-08-31T06:54:22.300Z,46.8
2016-08-31T06:54:56.597Z,46.9
2016-08-31T06:55:30.878Z,46.7
2016-08-31T06:56:05.263Z,46.8
2016-08-31T06:56:40.791Z,46.8
2016-08-31T06:57:16.230Z,47
2016-08-31T06:57:51.772Z,47
2016-08-31T06:58:26.508Z,46.7
2016-08-31T06:59:03.304Z,46.9
2016-08-31T06:59:40.164Z,46.9
2016-08-31T07:00:18.293Z,46.8
2016-08-31T07:00:54.838Z,46.7
2016-08-31T07:01:31.022Z,47
2016-08-31T07:02:07.287Z,46.9
2016-08-31T07:02:44.530Z,47.02
2016-08-31T07:03:21.076Z,46.61
2016-08-31T07:04:01.821Z,46.83
2016-08-31T07:04:40.717Z,46.73
2016-08-31T07:05:16.311Z,46.34
2016-08-31T07:05:51.986Z,46.44
2016-08-31T07:06:30.304Z,46.63
2016-08-31T07:07:07.290Z,46.63
2016-08-31T07:07:42.673Z,46.63
2016-08-31T07:08:18.799Z,46.53
2016-08-31T07:08:55.865Z,46.44
2016-08-31T07:09:31.712Z,46.53
2016-08-31T07:10:07.608Z,46.53
2016-08-31T07:10:41.925Z,46.63
2016-08-31T07:11:16.280Z,46.15
2016-08-31T07:11:51.802Z,46.63
2016-08-31T07:12:27.302Z,46.15
2016-08-31T07:13:03.313Z,46.15
2016-08-31T07:13:40.716Z,46.25
2016-08-31T07:14:21.352Z,46.26
2016-08-31T07:15:03.840Z,46.26
2016-08-31T07:15:43.586Z,46.26
2016-08-31T07:16:17.876Z,46.26
2016-08-31T07:16:53.810Z,46.46
2016-08-31T07:17:30.308Z,46.53
2016-08-31T07:18:04.634Z,46.36
2016-08-31T07:18:40.391Z,46.46
2016-08-31T07:19:14.687Z,46.75
2016-08-31T07:19:49.018Z,46.36
2016-08-31T07:20:23.336Z,46.17
2016-08-31T07:20:57.705Z,46.36
2016-08-31T07:21:33.012Z,46.46
2016-08-31T07:22:07.876Z,46.56
2016-08-31T07:22:42.284Z,46.56
2016-08-31T07:23:16.578Z,46.46
2016-08-31T07:23:50.925Z,46.46
2016-08-31T07:24:25.220Z,46.46
2016-08-31T07:24:59.519Z,46.56
2016-08-31T07:25:34.805Z,46
2016-08-31T07:26:11.246Z,46.39
2016-08-31T07:26:46.611Z,46.09
2016-08-31T07:27:23.305Z,46
2016-08-31T07:27:59.821Z,46.48
2016-08-31T07:28:37.312Z,46.39
2016-08-31T07:29:11.779Z,46.39
2016-08-31T07:29:46.078Z,46.29
2016-08-31T07:30:20.367Z,46.29
2016-08-31T07:30:54.785Z,46.19
2016-08-31T07:31:29.814Z,45.9
2016-08-31T07:32:04.102Z,46.39
2016-08-31T07:32:38.399Z,46.67
2016-08-31T07:33:12.699Z,46.67